sensor_id;sensor_type;location;lat;lon;timestamp;pressure;altitude;pressure_sealevel;temperature;humidity
79465;BME280;68932;47.410;8.232;2024-01-15T00:01:32;95866.15;;;1.18;81.92
79465;BME280;68932;47.410;8.232;2024-01-15T00:04:01;95860.11;;;1.18;81.86
79465;BME280;68932;47.410;8.232;2024-01-15T00:06:29;95853.83;;;1.16;81.90
79465;BME280;68932;47.410;8.232;2024-01-15T00:08:57;95852.35;;;1.14;81.92
79465;BME280;68932;47.410;8.232;2024-01-15T00:11:26;95852.55;;;1.14;81.96
79465;BME280;68932;47.410;8.232;2024-01-15T00:13:54;95851.00;;;1.14;81.93
79465;BME280;68932;47.410;8.232;2024-01-15T00:16:23;95841.00;;;1.14;81.98
79465;BME280;68932;47.410;8.232;2024-01-15T00:18:51;95846.33;;;1.14;82.01
79465;BME280;68932;47.410;8.232;2024-01-15T00:21:19;95851.77;;;1.13;81.90
79465;BME280;68932;47.410;8.232;2024-01-15T00:23:48;95855.67;;;1.10;81.88
79465;BME280;68932;47.410;8.232;2024-01-15T00:26:16;95857.10;;;1.09;81.90
79465;BME280;68932;47.410;8.232;2024-01-15T00:28:45;95857.25;;;1.10;82.00
79465;BME280;68932;47.410;8.232;2024-01-15T00:31:13;95857.80;;;1.12;81.97
79465;BME280;68932;47.410;8.232;2024-01-15T00:33:43;95849.52;;;1.16;82.08
79465;BME280;68932;47.410;8.232;2024-01-15T00:36:12;95857.11;;;1.20;82.08
79465;BME280;68932;47.410;8.232;2024-01-15T00:38:40;95862.80;;;1.24;81.96
79465;BME280;68932;47.410;8.232;2024-01-15T00:41:09;95863.64;;;1.28;81.98
79465;BME280;68932;47.410;8.232;2024-01-15T00:43:37;95869.00;;;1.32;81.90
79465;BME280;68932;47.410;8.232;2024-01-15T00:46:05;95865.25;;;1.34;81.81
79465;BME280;68932;47.410;8.232;2024-01-15T00:48:33;95871.64;;;1.34;81.18
79465;BME280;68932;47.410;8.232;2024-01-15T00:51:02;95877.77;;;1.29;80.28
79465;BME280;68932;47.410;8.232;2024-01-15T00:53:30;95881.73;;;1.25;79.91
79465;BME280;68932;47.410;8.232;2024-01-15T00:55:59;95884.73;;;1.20;79.54
79465;BME280;68932;47.410;8.232;2024-01-15T00:58:27;95873.81;;;1.17;79.59
79465;BME280;68932;47.410;8.232;2024-01-15T01:00:55;95877.19;;;1.15;79.41
79465;BME280;68932;47.410;8.232;2024-01-15T01:03:23;95873.02;;;1.12;79.17
79465;BME280;68932;47.410;8.232;2024-01-15T01:05:52;95871.20;;;1.10;79.30
79465;BME280;68932;47.410;8.232;2024-01-15T01:08:20;95877.17;;;1.11;79.39
79465;BME280;68932;47.410;8.232;2024-01-15T01:10:48;95872.70;;;1.11;79.08
79465;BME280;68932;47.410;8.232;2024-01-15T01:13:17;95869.48;;;1.10;79.05
79465;BME280;68932;47.410;8.232;2024-01-15T01:15:45;95883.77;;;1.11;79.12
79465;BME280;68932;47.410;8.232;2024-01-15T01:18:13;95888.89;;;1.12;78.96
79465;BME280;68932;47.410;8.232;2024-01-15T01:20:42;95889.62;;;1.11;78.77
79465;BME280;68932;47.410;8.232;2024-01-15T01:23:10;95881.28;;;1.08;78.55
79465;BME280;68932;47.410;8.232;2024-01-15T01:25:38;95877.55;;;1.07;78.57
79465;BME280;68932;47.410;8.232;2024-01-15T01:28:07;95871.25;;;1.09;78.68
79465;BME280;68932;47.410;8.232;2024-01-15T01:30:35;95867.56;;;1.10;78.54
79465;BME280;68932;47.410;8.232;2024-01-15T01:33:04;95869.23;;;1.12;78.51
79465;BME280;68932;47.410;8.232;2024-01-15T01:35:32;95866.62;;;1.12;78.56
79465;BME280;68932;47.410;8.232;2024-01-15T01:38:01;95876.56;;;1.13;78.54
79465;BME280;68932;47.410;8.232;2024-01-15T01:40:29;95887.44;;;1.13;78.43
79465;BME280;68932;47.410;8.232;2024-01-15T01:42:57;95891.19;;;1.14;78.36
79465;BME280;68932;47.410;8.232;2024-01-15T01:45:26;95880.35;;;1.14;78.21
79465;BME280;68932;47.410;8.232;2024-01-15T01:47:54;95874.50;;;1.10;78.09
79465;BME280;68932;47.410;8.232;2024-01-15T01:50:23;95874.20;;;1.09;78.27
79465;BME280;68932;47.410;8.232;2024-01-15T01:52:51;95885.09;;;1.08;78.19
79465;BME280;68932;47.410;8.232;2024-01-15T01:55:20;95894.06;;;1.08;78.19
79465;BME280;68932;47.410;8.232;2024-01-15T01:57:50;95894.31;;;1.07;78.26
79465;BME280;68932;47.410;8.232;2024-01-15T02:00:19;95898.08;;;1.07;78.26
79465;BME280;68932;47.410;8.232;2024-01-15T02:02:47;95903.55;;;1.09;78.22
79465;BME280;68932;47.410;8.232;2024-01-15T02:05:19;95903.45;;;1.07;78.13
79465;BME280;68932;47.410;8.232;2024-01-15T02:07:47;95900.98;;;1.04;78.05
79465;BME280;68932;47.410;8.232;2024-01-15T02:10:16;95897.06;;;0.99;78.13
79465;BME280;68932;47.410;8.232;2024-01-15T02:12:45;95890.79;;;0.97;78.28
79465;BME280;68932;47.410;8.232;2024-01-15T02:15:14;95891.90;;;0.95;78.33
79465;BME280;68932;47.410;8.232;2024-01-15T02:17:59;95890.90;;;0.94;78.34
79465;BME280;68932;47.410;8.232;2024-01-15T02:20:28;95885.09;;;0.93;78.32
79465;BME280;68932;47.410;8.232;2024-01-15T02:23:09;95888.15;;;0.90;78.27
79465;BME280;68932;47.410;8.232;2024-01-15T02:25:39;95883.70;;;0.86;78.29
79465;BME280;68932;47.410;8.232;2024-01-15T02:28:09;95881.67;;;0.81;78.36
79465;BME280;68932;47.410;8.232;2024-01-15T02:30:39;95885.94;;;0.77;78.55
79465;BME280;68932;47.410;8.232;2024-01-15T02:33:08;95879.99;;;0.76;78.64
79465;BME280;68932;47.410;8.232;2024-01-15T02:35:36;95879.02;;;0.74;78.68
79465;BME280;68932;47.410;8.232;2024-01-15T02:38:05;95877.45;;;0.71;78.71
79465;BME280;68932;47.410;8.232;2024-01-15T02:40:33;95880.05;;;0.67;78.71
79465;BME280;68932;47.410;8.232;2024-01-15T02:43:02;95884.21;;;0.59;78.76
79465;BME280;68932;47.410;8.232;2024-01-15T02:45:31;95882.20;;;0.53;78.87
79465;BME280;68932;47.410;8.232;2024-01-15T02:47:59;95873.55;;;0.50;78.93
79465;BME280;68932;47.410;8.232;2024-01-15T02:50:27;95876.80;;;0.47;79.00
79465;BME280;68932;47.410;8.232;2024-01-15T02:52:55;95880.00;;;0.44;78.92
79465;BME280;68932;47.410;8.232;2024-01-15T02:55:24;95877.42;;;0.44;78.97
79465;BME280;68932;47.410;8.232;2024-01-15T02:57:52;95871.89;;;0.45;78.86
79465;BME280;68932;47.410;8.232;2024-01-15T03:00:20;95875.48;;;0.46;78.88
79465;BME280;68932;47.410;8.232;2024-01-15T03:02:51;95880.77;;;0.47;78.83
79465;BME280;68932;47.410;8.232;2024-01-15T03:05:19;95882.91;;;0.49;78.70
79465;BME280;68932;47.410;8.232;2024-01-15T03:07:48;95880.43;;;0.51;78.45
79465;BME280;68932;47.410;8.232;2024-01-15T03:10:16;95870.73;;;0.51;78.21
79465;BME280;68932;47.410;8.232;2024-01-15T03:12:44;95870.84;;;0.53;77.65
79465;BME280;68932;47.410;8.232;2024-01-15T03:15:13;95859.36;;;0.55;77.27
79465;BME280;68932;47.410;8.232;2024-01-15T03:17:42;95863.23;;;0.57;77.06
79465;BME280;68932;47.410;8.232;2024-01-15T03:20:12;95864.85;;;0.60;77.04
79465;BME280;68932;47.410;8.232;2024-01-15T03:22:40;95863.58;;;0.62;76.83
79465;BME280;68932;47.410;8.232;2024-01-15T03:25:09;95860.41;;;0.62;76.82
79465;BME280;68932;47.410;8.232;2024-01-15T03:27:37;95861.14;;;0.66;76.84
79465;BME280;68932;47.410;8.232;2024-01-15T03:30:08;95864.50;;;0.68;76.76
79465;BME280;68932;47.410;8.232;2024-01-15T03:32:36;95862.49;;;0.70;76.74
79465;BME280;68932;47.410;8.232;2024-01-15T03:35:05;95864.77;;;0.73;76.65
79465;BME280;68932;47.410;8.232;2024-01-15T03:37:34;95858.38;;;0.77;76.68
79465;BME280;68932;47.410;8.232;2024-01-15T03:40:02;95852.57;;;0.80;76.56
79465;BME280;68932;47.410;8.232;2024-01-15T03:42:31;95850.17;;;0.83;76.59
79465;BME280;68932;47.410;8.232;2024-01-15T03:44:59;95853.52;;;0.86;76.29
79465;BME280;68932;47.410;8.232;2024-01-15T03:47:28;95849.35;;;0.87;76.18
79465;BME280;68932;47.410;8.232;2024-01-15T03:49:56;95843.05;;;0.89;75.95
79465;BME280;68932;47.410;8.232;2024-01-15T03:52:24;95845.00;;;0.91;75.93
79465;BME280;68932;47.410;8.232;2024-01-15T03:54:53;95842.15;;;0.93;75.74
79465;BME280;68932;47.410;8.232;2024-01-15T03:57:21;95837.99;;;0.93;75.41
79465;BME280;68932;47.410;8.232;2024-01-15T03:59:49;95840.59;;;0.93;75.24
79465;BME280;68932;47.410;8.232;2024-01-15T04:02:18;95845.86;;;0.94;74.97
79465;BME280;68932;47.410;8.232;2024-01-15T04:04:46;95845.48;;;0.96;74.84
79465;BME280;68932;47.410;8.232;2024-01-15T04:07:14;95842.86;;;0.96;74.17
79465;BME280;68932;47.410;8.232;2024-01-15T04:09:42;95845.45;;;0.96;73.96
79465;BME280;68932;47.410;8.232;2024-01-15T04:12:11;95843.86;;;0.97;73.99
79465;BME280;68932;47.410;8.232;2024-01-15T04:14:39;95840.75;;;0.97;73.76
79465;BME280;68932;47.410;8.232;2024-01-15T04:17:07;95831.27;;;0.97;73.70
79465;BME280;68932;47.410;8.232;2024-01-15T04:19:36;95827.25;;;0.98;73.55
79465;BME280;68932;47.410;8.232;2024-01-15T04:22:05;95832.43;;;0.98;73.47
79465;BME280;68932;47.410;8.232;2024-01-15T04:24:34;95840.71;;;0.98;73.06
79465;BME280;68932;47.410;8.232;2024-01-15T04:27:03;95839.97;;;0.99;73.28
79465;BME280;68932;47.410;8.232;2024-01-15T04:29:31;95838.52;;;1.00;73.17
79465;BME280;68932;47.410;8.232;2024-01-15T04:31:59;95836.02;;;1.02;72.89
79465;BME280;68932;47.410;8.232;2024-01-15T04:34:27;95834.11;;;1.02;72.59
79465;BME280;68932;47.410;8.232;2024-01-15T04:36:56;95834.45;;;1.03;72.71
79465;BME280;68932;47.410;8.232;2024-01-15T04:39:24;95834.13;;;1.02;72.66
79465;BME280;68932;47.410;8.232;2024-01-15T04:41:52;95839.44;;;1.03;72.66
79465;BME280;68932;47.410;8.232;2024-01-15T04:44:22;95840.25;;;1.04;72.61
79465;BME280;68932;47.410;8.232;2024-01-15T04:46:50;95838.79;;;1.06;72.64
79465;BME280;68932;47.410;8.232;2024-01-15T04:49:18;95837.89;;;1.06;72.81
79465;BME280;68932;47.410;8.232;2024-01-15T04:51:47;95842.84;;;1.08;72.81
79465;BME280;68932;47.410;8.232;2024-01-15T04:54:15;95837.98;;;1.08;72.76
79465;BME280;68932;47.410;8.232;2024-01-15T04:56:44;95837.28;;;1.08;72.80
79465;BME280;68932;47.410;8.232;2024-01-15T04:59:13;95840.70;;;1.09;72.63
79465;BME280;68932;47.410;8.232;2024-01-15T05:01:42;95843.52;;;1.08;72.53
79465;BME280;68932;47.410;8.232;2024-01-15T05:04:10;95841.50;;;1.07;72.54
79465;BME280;68932;47.410;8.232;2024-01-15T05:06:38;95839.30;;;1.06;72.66
79465;BME280;68932;47.410;8.232;2024-01-15T05:09:07;95842.85;;;1.07;72.76
79465;BME280;68932;47.410;8.232;2024-01-15T05:11:35;95841.64;;;1.07;72.71
79465;BME280;68932;47.410;8.232;2024-01-15T05:14:03;95836.64;;;1.07;72.83
79465;BME280;68932;47.410;8.232;2024-01-15T05:16:32;95838.49;;;1.08;72.72
79465;BME280;68932;47.410;8.232;2024-01-15T05:19:00;95844.17;;;1.09;72.87
79465;BME280;68932;47.410;8.232;2024-01-15T05:21:28;95836.96;;;1.08;72.70
79465;BME280;68932;47.410;8.232;2024-01-15T05:23:56;95835.60;;;1.07;72.85
79465;BME280;68932;47.410;8.232;2024-01-15T05:26:25;95823.66;;;1.08;73.06
79465;BME280;68932;47.410;8.232;2024-01-15T05:28:53;95818.97;;;1.09;73.31
79465;BME280;68932;47.410;8.232;2024-01-15T05:31:21;95825.98;;;1.10;73.42
79465;BME280;68932;47.410;8.232;2024-01-15T05:33:49;95837.86;;;1.11;73.40
79465;BME280;68932;47.410;8.232;2024-01-15T05:36:18;95833.37;;;1.11;73.48
79465;BME280;68932;47.410;8.232;2024-01-15T05:38:46;95827.13;;;1.11;73.59
79465;BME280;68932;47.410;8.232;2024-01-15T05:41:15;95822.34;;;1.11;73.49
79465;BME280;68932;47.410;8.232;2024-01-15T05:43:43;95821.11;;;1.11;73.44
79465;BME280;68932;47.410;8.232;2024-01-15T05:46:11;95819.23;;;1.11;73.58
79465;BME280;68932;47.410;8.232;2024-01-15T05:48:39;95823.56;;;1.10;73.65
79465;BME280;68932;47.410;8.232;2024-01-15T05:51:08;95833.55;;;1.10;73.77
79465;BME280;68932;47.410;8.232;2024-01-15T05:53:36;95831.48;;;1.11;73.90
79465;BME280;68932;47.410;8.232;2024-01-15T05:56:05;95827.97;;;1.12;74.11
79465;BME280;68932;47.410;8.232;2024-01-15T05:58:33;95829.98;;;1.13;74.15
79465;BME280;68932;47.410;8.232;2024-01-15T06:01:01;95832.61;;;1.15;74.27
79465;BME280;68932;47.410;8.232;2024-01-15T06:03:29;95829.88;;;1.15;74.26
79465;BME280;68932;47.410;8.232;2024-01-15T06:05:58;95828.34;;;1.15;74.14
79465;BME280;68932;47.410;8.232;2024-01-15T06:08:26;95822.93;;;1.16;74.13
79465;BME280;68932;47.410;8.232;2024-01-15T06:10:55;95828.61;;;1.16;74.07
79465;BME280;68932;47.410;8.232;2024-01-15T06:13:24;95826.66;;;1.18;74.17
79465;BME280;68932;47.410;8.232;2024-01-15T06:15:52;95824.89;;;1.18;74.17
79465;BME280;68932;47.410;8.232;2024-01-15T06:18:20;95818.00;;;1.18;73.99
79465;BME280;68932;47.410;8.232;2024-01-15T06:20:48;95819.27;;;1.17;73.98
79465;BME280;68932;47.410;8.232;2024-01-15T06:23:17;95820.65;;;1.17;74.08
79465;BME280;68932;47.410;8.232;2024-01-15T06:25:45;95818.20;;;1.17;74.02
79465;BME280;68932;47.410;8.232;2024-01-15T06:28:13;95814.71;;;1.18;74.02
79465;BME280;68932;47.410;8.232;2024-01-15T06:30:42;95817.63;;;1.19;74.04
79465;BME280;68932;47.410;8.232;2024-01-15T06:33:10;95816.71;;;1.20;73.97
79465;BME280;68932;47.410;8.232;2024-01-15T06:35:38;95818.59;;;1.20;73.99
79465;BME280;68932;47.410;8.232;2024-01-15T06:38:06;95815.47;;;1.21;73.91
79465;BME280;68932;47.410;8.232;2024-01-15T06:40:34;95815.23;;;1.22;73.92
79465;BME280;68932;47.410;8.232;2024-01-15T06:43:04;95805.50;;;1.24;73.75
79465;BME280;68932;47.410;8.232;2024-01-15T06:45:32;95808.08;;;1.24;73.68
79465;BME280;68932;47.410;8.232;2024-01-15T06:48:00;95807.75;;;1.24;73.47
79465;BME280;68932;47.410;8.232;2024-01-15T06:50:28;95808.30;;;1.23;73.34
79465;BME280;68932;47.410;8.232;2024-01-15T06:52:57;95808.33;;;1.22;72.89
79465;BME280;68932;47.410;8.232;2024-01-15T06:55:25;95802.29;;;1.23;73.00
79465;BME280;68932;47.410;8.232;2024-01-15T06:57:53;95801.91;;;1.23;72.96
79465;BME280;68932;47.410;8.232;2024-01-15T07:00:22;95799.80;;;1.24;72.73
79465;BME280;68932;47.410;8.232;2024-01-15T07:02:50;95800.10;;;1.25;72.65
79465;BME280;68932;47.410;8.232;2024-01-15T07:05:20;95794.13;;;1.27;72.33
79465;BME280;68932;47.410;8.232;2024-01-15T07:07:48;95795.65;;;1.28;72.06
79465;BME280;68932;47.410;8.232;2024-01-15T07:10:16;95799.18;;;1.30;72.04
79465;BME280;68932;47.410;8.232;2024-01-15T07:12:45;95804.10;;;1.31;71.96
79465;BME280;68932;47.410;8.232;2024-01-15T07:15:14;95806.01;;;1.31;71.67
79465;BME280;68932;47.410;8.232;2024-01-15T07:17:42;95807.79;;;1.30;71.44
79465;BME280;68932;47.410;8.232;2024-01-15T07:20:12;95812.88;;;1.28;71.44
79465;BME280;68932;47.410;8.232;2024-01-15T07:22:40;95805.40;;;1.26;71.59
79465;BME280;68932;47.410;8.232;2024-01-15T07:25:09;95814.97;;;1.24;71.56
79465;BME280;68932;47.410;8.232;2024-01-15T07:27:37;95814.92;;;1.22;71.57
79465;BME280;68932;47.410;8.232;2024-01-15T07:30:07;95814.98;;;1.20;71.65
79465;BME280;68932;47.410;8.232;2024-01-15T07:32:36;95814.48;;;1.20;71.76
79465;BME280;68932;47.410;8.232;2024-01-15T07:35:05;95816.82;;;1.22;71.77
79465;BME280;68932;47.410;8.232;2024-01-15T07:37:33;95802.92;;;1.23;71.76
79465;BME280;68932;47.410;8.232;2024-01-15T07:40:02;95810.35;;;1.27;71.80
79465;BME280;68932;47.410;8.232;2024-01-15T07:42:30;95809.55;;;1.29;71.88
79465;BME280;68932;47.410;8.232;2024-01-15T07:44:59;95799.40;;;1.32;71.66
79465;BME280;68932;47.410;8.232;2024-01-15T07:47:27;95803.49;;;1.33;71.47
79465;BME280;68932;47.410;8.232;2024-01-15T07:49:55;95805.33;;;1.34;71.14
79465;BME280;68932;47.410;8.232;2024-01-15T07:52:24;95809.45;;;1.35;70.50
79465;BME280;68932;47.410;8.232;2024-01-15T07:54:52;95805.47;;;1.35;70.18
79465;BME280;68932;47.410;8.232;2024-01-15T07:57:20;95808.77;;;1.35;70.33
79465;BME280;68932;47.410;8.232;2024-01-15T07:59:49;95813.11;;;1.37;70.68
79465;BME280;68932;47.410;8.232;2024-01-15T08:02:17;95820.95;;;1.40;70.59
79465;BME280;68932;47.410;8.232;2024-01-15T08:04:45;95828.33;;;1.41;70.45
79465;BME280;68932;47.410;8.232;2024-01-15T08:07:14;95828.76;;;1.43;70.35
79465;BME280;68932;47.410;8.232;2024-01-15T08:09:42;95823.75;;;1.47;70.31
79465;BME280;68932;47.410;8.232;2024-01-15T08:12:10;95826.30;;;1.50;70.37
79465;BME280;68932;47.410;8.232;2024-01-15T08:14:39;95828.22;;;1.54;69.94
79465;BME280;68932;47.410;8.232;2024-01-15T08:17:07;95826.85;;;1.57;69.77
79465;BME280;68932;47.410;8.232;2024-01-15T08:19:36;95828.38;;;1.57;69.65
79465;BME280;68932;47.410;8.232;2024-01-15T08:22:04;95824.69;;;1.59;69.17
79465;BME280;68932;47.410;8.232;2024-01-15T08:24:33;95827.77;;;1.60;68.44
79465;BME280;68932;47.410;8.232;2024-01-15T08:27:01;95825.13;;;1.57;67.05
79465;BME280;68932;47.410;8.232;2024-01-15T08:29:29;95824.14;;;1.56;67.51
79465;BME280;68932;47.410;8.232;2024-01-15T08:31:58;95822.84;;;1.58;67.99
79465;BME280;68932;47.410;8.232;2024-01-15T08:34:26;95825.25;;;1.62;68.16
79465;BME280;68932;47.410;8.232;2024-01-15T08:36:54;95827.54;;;1.65;68.06
79465;BME280;68932;47.410;8.232;2024-01-15T08:39:23;95825.46;;;1.68;67.97
79465;BME280;68932;47.410;8.232;2024-01-15T08:41:51;95828.71;;;1.69;66.81
79465;BME280;68932;47.410;8.232;2024-01-15T08:44:19;95827.39;;;1.68;66.64
79465;BME280;68932;47.410;8.232;2024-01-15T08:46:48;95833.41;;;1.68;66.65
79465;BME280;68932;47.410;8.232;2024-01-15T08:49:16;95831.44;;;1.70;66.54
79465;BME280;68932;47.410;8.232;2024-01-15T08:51:44;95834.91;;;1.69;65.40
79465;BME280;68932;47.410;8.232;2024-01-15T08:54:12;95839.04;;;1.69;65.07
79465;BME280;68932;47.410;8.232;2024-01-15T08:56:41;95834.68;;;1.70;64.90
79465;BME280;68932;47.410;8.232;2024-01-15T08:59:09;95833.77;;;1.71;64.66
79465;BME280;68932;47.410;8.232;2024-01-15T09:01:37;95831.70;;;1.71;64.45
79465;BME280;68932;47.410;8.232;2024-01-15T09:04:06;95830.27;;;1.72;64.82
79465;BME280;68932;47.410;8.232;2024-01-15T09:06:34;95826.70;;;1.75;64.76
79465;BME280;68932;47.410;8.232;2024-01-15T09:09:02;95825.71;;;1.77;64.32
79465;BME280;68932;47.410;8.232;2024-01-15T09:11:30;95821.69;;;1.78;64.56
79465;BME280;68932;47.410;8.232;2024-01-15T09:13:59;95818.02;;;1.82;64.79
79465;BME280;68932;47.410;8.232;2024-01-15T09:16:27;95819.41;;;1.86;64.78
79465;BME280;68932;47.410;8.232;2024-01-15T09:18:56;95818.30;;;1.90;64.66
79465;BME280;68932;47.410;8.232;2024-01-15T09:21:24;95819.80;;;1.95;64.69
79465;BME280;68932;47.410;8.232;2024-01-15T09:23:52;95823.11;;;1.98;64.61
79465;BME280;68932;47.410;8.232;2024-01-15T09:26:20;95823.85;;;2.01;64.76
79465;BME280;68932;47.410;8.232;2024-01-15T09:28:49;95827.59;;;2.05;64.86
79465;BME280;68932;47.410;8.232;2024-01-15T09:31:17;95825.83;;;2.09;64.53
79465;BME280;68932;47.410;8.232;2024-01-15T09:33:45;95823.77;;;2.12;64.57
79465;BME280;68932;47.410;8.232;2024-01-15T09:36:13;95820.42;;;2.17;64.42
79465;BME280;68932;47.410;8.232;2024-01-15T09:38:43;95821.51;;;2.19;64.08
79465;BME280;68932;47.410;8.232;2024-01-15T09:41:11;95821.95;;;2.21;64.73
79465;BME280;68932;47.410;8.232;2024-01-15T09:43:40;95819.42;;;2.23;64.69
79465;BME280;68932;47.410;8.232;2024-01-15T09:46:08;95816.94;;;2.24;64.28
79465;BME280;68932;47.410;8.232;2024-01-15T09:48:36;95820.98;;;2.26;64.17
79465;BME280;68932;47.410;8.232;2024-01-15T09:51:06;95820.98;;;2.30;64.08
79465;BME280;68932;47.410;8.232;2024-01-15T09:53:34;95816.91;;;2.31;63.86
79465;BME280;68932;47.410;8.232;2024-01-15T09:56:04;95819.00;;;2.34;63.74
79465;BME280;68932;47.410;8.232;2024-01-15T09:58:32;95817.27;;;2.38;63.82
79465;BME280;68932;47.410;8.232;2024-01-15T10:01:03;95815.77;;;2.44;64.13
79465;BME280;68932;47.410;8.232;2024-01-15T10:03:31;95814.42;;;2.50;64.13
79465;BME280;68932;47.410;8.232;2024-01-15T10:06:01;95813.52;;;2.57;64.46
79465;BME280;68932;47.410;8.232;2024-01-15T10:08:30;95812.58;;;2.65;64.21
79465;BME280;68932;47.410;8.232;2024-01-15T10:10:58;95807.54;;;2.72;64.06
79465;BME280;68932;47.410;8.232;2024-01-15T10:13:26;95808.11;;;2.77;64.10
79465;BME280;68932;47.410;8.232;2024-01-15T10:15:56;95803.44;;;2.84;63.90
79465;BME280;68932;47.410;8.232;2024-01-15T10:18:24;95803.09;;;2.91;63.65
79465;BME280;68932;47.410;8.232;2024-01-15T10:20:53;95800.63;;;2.95;63.45
79465;BME280;68932;47.410;8.232;2024-01-15T10:23:21;95804.27;;;2.97;63.02
79465;BME280;68932;47.410;8.232;2024-01-15T10:25:50;95794.77;;;3.00;62.94
79465;BME280;68932;47.410;8.232;2024-01-15T10:28:20;95793.19;;;3.04;63.04
79465;BME280;68932;47.410;8.232;2024-01-15T10:30:53;95791.42;;;3.07;62.76
79465;BME280;68932;47.410;8.232;2024-01-15T10:33:24;95783.04;;;3.12;62.68
79465;BME280;68932;47.410;8.232;2024-01-15T10:35:54;95775.97;;;3.17;62.84
79465;BME280;68932;47.410;8.232;2024-01-15T10:38:24;95771.28;;;3.25;62.82
79465;BME280;68932;47.410;8.232;2024-01-15T10:40:54;95762.48;;;3.30;62.48
79465;BME280;68932;47.410;8.232;2024-01-15T10:43:23;95757.73;;;3.31;61.85
79465;BME280;68932;47.410;8.232;2024-01-15T10:45:52;95758.73;;;3.32;61.08
79465;BME280;68932;47.410;8.232;2024-01-15T10:48:20;95757.84;;;3.32;60.89
79465;BME280;68932;47.410;8.232;2024-01-15T10:50:49;95755.80;;;3.31;60.18
79465;BME280;68932;47.410;8.232;2024-01-15T10:53:18;95748.45;;;3.30;60.56
79465;BME280;68932;47.410;8.232;2024-01-15T10:55:48;95747.83;;;3.29;60.48
79465;BME280;68932;47.410;8.232;2024-01-15T10:58:18;95750.23;;;3.29;60.10
79465;BME280;68932;47.410;8.232;2024-01-15T11:00:48;95752.31;;;3.29;60.23
79465;BME280;68932;47.410;8.232;2024-01-15T11:03:17;95747.49;;;3.31;60.46
79465;BME280;68932;47.410;8.232;2024-01-15T11:05:47;95747.83;;;3.35;60.19
79465;BME280;68932;47.410;8.232;2024-01-15T11:08:18;95746.02;;;3.36;59.81
79465;BME280;68932;47.410;8.232;2024-01-15T11:10:47;95739.46;;;3.38;59.97
79465;BME280;68932;47.410;8.232;2024-01-15T11:13:19;95737.55;;;3.42;60.29
79465;BME280;68932;47.410;8.232;2024-01-15T11:16:02;95736.92;;;3.47;59.91
79465;BME280;68932;47.410;8.232;2024-01-15T11:18:32;95735.43;;;3.49;59.53
79465;BME280;68932;47.410;8.232;2024-01-15T11:21:21;95733.98;;;3.53;59.67
79465;BME280;68932;47.410;8.232;2024-01-15T11:23:51;95727.42;;;3.58;59.52
79465;BME280;68932;47.410;8.232;2024-01-15T11:26:37;95723.38;;;3.62;59.07
79465;BME280;68932;47.410;8.232;2024-01-15T11:29:06;95715.55;;;3.69;59.63
79465;BME280;68932;47.410;8.232;2024-01-15T11:32:00;95705.37;;;3.74;59.67
79465;BME280;68932;47.410;8.232;2024-01-15T11:34:51;95707.33;;;3.79;59.15
79465;BME280;68932;47.410;8.232;2024-01-15T11:37:20;95700.98;;;3.84;58.99
79465;BME280;68932;47.410;8.232;2024-01-15T11:39:49;95702.30;;;3.88;58.97
79465;BME280;68932;47.410;8.232;2024-01-15T11:42:19;95708.83;;;3.91;59.28
79465;BME280;68932;47.410;8.232;2024-01-15T11:44:48;95705.14;;;3.95;59.37
79465;BME280;68932;47.410;8.232;2024-01-15T11:47:17;95696.15;;;4.01;58.91
79465;BME280;68932;47.410;8.232;2024-01-15T11:50:02;95697.58;;;4.03;58.05
79465;BME280;68932;47.410;8.232;2024-01-15T11:52:35;95698.77;;;4.06;58.05
79465;BME280;68932;47.410;8.232;2024-01-15T11:55:12;95699.33;;;4.12;58.18
79465;BME280;68932;47.410;8.232;2024-01-15T11:57:45;95696.14;;;4.18;58.10
79465;BME280;68932;47.410;8.232;2024-01-15T12:00:15;95693.92;;;4.23;58.43
79465;BME280;68932;47.410;8.232;2024-01-15T12:02:44;95693.80;;;4.25;57.81
79465;BME280;68932;47.410;8.232;2024-01-15T12:05:13;95693.55;;;4.26;57.47
79465;BME280;68932;47.410;8.232;2024-01-15T12:07:43;95694.36;;;4.25;57.40
79465;BME280;68932;47.410;8.232;2024-01-15T12:10:13;95693.44;;;4.25;57.17
79465;BME280;68932;47.410;8.232;2024-01-15T12:12:49;95692.54;;;4.26;57.13
79465;BME280;68932;47.410;8.232;2024-01-15T12:15:19;95698.10;;;4.28;57.46
79465;BME280;68932;47.410;8.232;2024-01-15T12:17:48;95702.54;;;4.32;58.13
79465;BME280;68932;47.410;8.232;2024-01-15T12:20:17;95702.91;;;4.38;58.43
79465;BME280;68932;47.410;8.232;2024-01-15T12:22:46;95716.45;;;4.44;58.17
79465;BME280;68932;47.410;8.232;2024-01-15T12:25:14;95711.80;;;4.46;57.55
79465;BME280;68932;47.410;8.232;2024-01-15T12:27:42;95709.95;;;4.48;58.03
79465;BME280;68932;47.410;8.232;2024-01-15T12:30:14;95712.04;;;4.50;57.88
79465;BME280;68932;47.410;8.232;2024-01-15T12:32:43;95714.79;;;4.51;57.40
79465;BME280;68932;47.410;8.232;2024-01-15T12:35:12;95722.80;;;4.50;56.65
79465;BME280;68932;47.410;8.232;2024-01-15T12:37:41;95717.22;;;4.45;55.69
79465;BME280;68932;47.410;8.232;2024-01-15T12:40:11;95718.15;;;4.38;55.71
79465;BME280;68932;47.410;8.232;2024-01-15T12:42:40;95728.09;;;4.31;56.79
79465;BME280;68932;47.410;8.232;2024-01-15T12:45:11;95723.32;;;4.22;57.94
79465;BME280;68932;47.410;8.232;2024-01-15T12:47:40;95721.89;;;4.08;58.56
79465;BME280;68932;47.410;8.232;2024-01-15T12:50:10;95728.55;;;3.92;59.32
79465;BME280;68932;47.410;8.232;2024-01-15T12:52:39;95721.88;;;3.79;60.02
79465;BME280;68932;47.410;8.232;2024-01-15T12:55:09;95724.52;;;3.63;60.75
79465;BME280;68932;47.410;8.232;2024-01-15T12:57:38;95729.05;;;3.57;61.41
79465;BME280;68932;47.410;8.232;2024-01-15T13:00:08;95726.21;;;3.52;61.82
79465;BME280;68932;47.410;8.232;2024-01-15T13:02:37;95725.83;;;3.50;62.16
79465;BME280;68932;47.410;8.232;2024-01-15T13:05:07;95731.04;;;3.53;62.65
79465;BME280;68932;47.410;8.232;2024-01-15T13:07:36;95728.63;;;3.55;62.82
79465;BME280;68932;47.410;8.232;2024-01-15T13:10:05;95730.52;;;3.58;62.90
79465;BME280;68932;47.410;8.232;2024-01-15T13:12:34;95722.17;;;3.56;63.08
79465;BME280;68932;47.410;8.232;2024-01-15T13:15:03;95717.65;;;3.53;63.38
79465;BME280;68932;47.410;8.232;2024-01-15T13:17:31;95716.01;;;3.55;63.68
79465;BME280;68932;47.410;8.232;2024-01-15T13:19:59;95719.33;;;3.51;63.72